sensor_id;sensor_type;location;lat;lon;timestamp;P1;durP1;ratioP1;P2;durP2;ratioP2
77705;SDS011;66874;45.274;5.880;2023-09-07T00:00:20;7.47;;;5.13;;
77705;SDS011;66874;45.274;5.880;2023-09-07T00:02:46;8.57;;;5.28;;
77705;SDS011;66874;45.274;5.880;2023-09-07T00:05:11;9.98;;;5.25;;
77705;SDS011;66874;45.274;5.880;2023-09-07T00:07:38;6.13;;;4.88;;
77705;SDS011;66874;45.274;5.880;2023-09-07T00:10:03;10.43;;;5.20;;
77705;SDS011;66874;45.274;5.880;2023-09-07T00:12:29;6.88;;;5.05;;
77705;SDS011;66874;45.274;5.880;2023-09-07T00:14:55;10.45;;;5.22;;
77705;SDS011;66874;45.274;5.880;2023-09-07T00:17:21;6.15;;;5.15;;
77705;SDS011;66874;45.274;5.880;2023-09-07T00:19:47;8.02;;;4.70;;
77705;SDS011;66874;45.274;5.880;2023-09-07T00:22:14;8.65;;;4.93;;
77705;SDS011;66874;45.274;5.880;2023-09-07T00:24:39;10.38;;;5.15;;
77705;SDS011;66874;45.274;5.880;2023-09-07T00:27:05;8.63;;;4.90;;
77705;SDS011;66874;45.274;5.880;2023-09-07T00:31:58;6.57;;;4.93;;
77705;SDS011;66874;45.274;5.880;2023-09-07T00:34:23;8.73;;;4.40;;
77705;SDS011;66874;45.274;5.880;2023-09-07T00:36:48;4.90;;;4.40;;
77705;SDS011;66874;45.274;5.880;2023-09-07T00:39:14;7.68;;;4.53;;
77705;SDS011;66874;45.274;5.880;2023-09-07T00:41:39;7.25;;;5.00;;
77705;SDS011;66874;45.274;5.880;2023-09-07T00:44:04;7.05;;;5.03;;
77705;SDS011;66874;45.274;5.880;2023-09-07T00:46:30;6.97;;;4.97;;
77705;SDS011;66874;45.274;5.880;2023-09-07T00:48:55;7.95;;;5.47;;
77705;SDS011;66874;45.274;5.880;2023-09-07T00:51:22;8.90;;;5.45;;
77705;SDS011;66874;45.274;5.880;2023-09-07T00:53:47;7.55;;;5.65;;
77705;SDS011;66874;45.274;5.880;2023-09-07T00:56:14;8.57;;;5.50;;
77705;SDS011;66874;45.274;5.880;2023-09-07T00:58:39;7.95;;;5.60;;
77705;SDS011;66874;45.274;5.880;2023-09-07T01:01:05;7.88;;;4.82;;
77705;SDS011;66874;45.274;5.880;2023-09-07T01:03:30;8.18;;;6.38;;
77705;SDS011;66874;45.274;5.880;2023-09-07T01:06:01;11.25;;;5.28;;
77705;SDS011;66874;45.274;5.880;2023-09-07T01:08:33;9.18;;;5.45;;
77705;SDS011;66874;45.274;5.880;2023-09-07T01:11:12;8.15;;;5.00;;
77705;SDS011;66874;45.274;5.880;2023-09-07T01:13:38;8.43;;;5.10;;
77705;SDS011;66874;45.274;5.880;2023-09-07T01:16:04;8.05;;;5.28;;
77705;SDS011;66874;45.274;5.880;2023-09-07T01:18:30;6.78;;;5.38;;
77705;SDS011;66874;45.274;5.880;2023-09-07T01:20:56;8.30;;;5.75;;
77705;SDS011;66874;45.274;5.880;2023-09-07T01:23:23;7.90;;;4.82;;
77705;SDS011;66874;45.274;5.880;2023-09-07T01:25:49;8.45;;;5.30;;
77705;SDS011;66874;45.274;5.880;2023-09-07T01:28:16;12.13;;;5.45;;
77705;SDS011;66874;45.274;5.880;2023-09-07T01:30:41;5.88;;;4.85;;
77705;SDS011;66874;45.274;5.880;2023-09-07T01:33:06;8.20;;;5.43;;
77705;SDS011;66874;45.274;5.880;2023-09-07T01:35:33;7.78;;;5.28;;
77705;SDS011;66874;45.274;5.880;2023-09-07T01:38:01;6.47;;;5.63;;
77705;SDS011;66874;45.274;5.880;2023-09-07T01:40:27;7.80;;;5.68;;
77705;SDS011;66874;45.274;5.880;2023-09-07T01:42:53;10.60;;;5.22;;
77705;SDS011;66874;45.274;5.880;2023-09-07T01:45:18;8.93;;;5.22;;
77705;SDS011;66874;45.274;5.880;2023-09-07T01:47:44;10.30;;;5.82;;
77705;SDS011;66874;45.274;5.880;2023-09-07T01:50:09;8.55;;;5.50;;
77705;SDS011;66874;45.274;5.880;2023-09-07T01:52:34;8.77;;;5.53;;
77705;SDS011;66874;45.274;5.880;2023-09-07T01:55:00;7.03;;;5.60;;
77705;SDS011;66874;45.274;5.880;2023-09-07T01:57:25;8.93;;;5.78;;
77705;SDS011;66874;45.274;5.880;2023-09-07T01:59:51;7.05;;;5.80;;
77705;SDS011;66874;45.274;5.880;2023-09-07T02:02:16;7.00;;;5.88;;
77705;SDS011;66874;45.274;5.880;2023-09-07T02:04:41;9.43;;;5.88;;
77705;SDS011;66874;45.274;5.880;2023-09-07T02:07:10;8.57;;;6.07;;
77705;SDS011;66874;45.274;5.880;2023-09-07T02:09:36;7.18;;;5.68;;
77705;SDS011;66874;45.274;5.880;2023-09-07T02:12:02;9.43;;;5.90;;
77705;SDS011;66874;45.274;5.880;2023-09-07T02:14:29;8.48;;;5.78;;
77705;SDS011;66874;45.274;5.880;2023-09-07T02:16:54;6.68;;;5.82;;
77705;SDS011;66874;45.274;5.880;2023-09-07T02:19:19;8.50;;;5.80;;
77705;SDS011;66874;45.274;5.880;2023-09-07T02:21:47;7.97;;;5.75;;
77705;SDS011;66874;45.274;5.880;2023-09-07T02:24:13;6.97;;;5.75;;
77705;SDS011;66874;45.274;5.880;2023-09-07T02:26:38;8.15;;;6.20;;
77705;SDS011;66874;45.274;5.880;2023-09-07T02:29:08;9.02;;;5.70;;
77705;SDS011;66874;45.274;5.880;2023-09-07T02:31:34;10.38;;;5.38;;
77705;SDS011;66874;45.274;5.880;2023-09-07T02:33:59;11.48;;;5.93;;
77705;SDS011;66874;45.274;5.880;2023-09-07T02:36:24;10.75;;;5.60;;
77705;SDS011;66874;45.274;5.880;2023-09-07T02:38:50;7.72;;;5.65;;
77705;SDS011;66874;45.274;5.880;2023-09-07T02:41:15;7.47;;;5.75;;
77705;SDS011;66874;45.274;5.880;2023-09-07T02:43:41;6.57;;;5.85;;
77705;SDS011;66874;45.274;5.880;2023-09-07T02:46:06;8.25;;;5.60;;
77705;SDS011;66874;45.274;5.880;2023-09-07T02:48:32;11.90;;;6.40;;
77705;SDS011;66874;45.274;5.880;2023-09-07T02:50:57;7.93;;;6.38;;
77705;SDS011;66874;45.274;5.880;2023-09-07T02:53:23;8.18;;;6.18;;
77705;SDS011;66874;45.274;5.880;2023-09-07T02:55:49;10.00;;;5.93;;
77705;SDS011;66874;45.274;5.880;2023-09-07T02:58:15;7.85;;;6.05;;
77705;SDS011;66874;45.274;5.880;2023-09-07T03:00:43;9.23;;;6.10;;
77705;SDS011;66874;45.274;5.880;2023-09-07T03:03:09;11.73;;;5.82;;
77705;SDS011;66874;45.274;5.880;2023-09-07T03:05:36;7.85;;;6.20;;
77705;SDS011;66874;45.274;5.880;2023-09-07T03:08:02;10.85;;;6.47;;
77705;SDS011;66874;45.274;5.880;2023-09-07T03:10:28;9.70;;;6.28;;
77705;SDS011;66874;45.274;5.880;2023-09-07T03:12:53;10.27;;;6.35;;
77705;SDS011;66874;45.274;5.880;2023-09-07T03:15:19;10.35;;;6.47;;
77705;SDS011;66874;45.274;5.880;2023-09-07T03:17:45;9.50;;;6.32;;
77705;SDS011;66874;45.274;5.880;2023-09-07T03:20:10;7.30;;;6.60;;
77705;SDS011;66874;45.274;5.880;2023-09-07T03:22:42;10.65;;;6.55;;
77705;SDS011;66874;45.274;5.880;2023-09-07T03:25:08;8.45;;;6.70;;
77705;SDS011;66874;45.274;5.880;2023-09-07T03:27:35;8.80;;;6.10;;
77705;SDS011;66874;45.274;5.880;2023-09-07T03:30:01;9.13;;;6.50;;
77705;SDS011;66874;45.274;5.880;2023-09-07T03:32:26;8.27;;;5.95;;
77705;SDS011;66874;45.274;5.880;2023-09-07T03:34:56;13.60;;;6.75;;
77705;SDS011;66874;45.274;5.880;2023-09-07T03:37:22;10.38;;;7.25;;
77705;SDS011;66874;45.274;5.880;2023-09-07T03:39:47;10.05;;;6.32;;
77705;SDS011;66874;45.274;5.880;2023-09-07T03:42:13;7.78;;;5.90;;
77705;SDS011;66874;45.274;5.880;2023-09-07T03:44:38;9.85;;;6.07;;
77705;SDS011;66874;45.274;5.880;2023-09-07T03:47:04;12.18;;;6.25;;
77705;SDS011;66874;45.274;5.880;2023-09-07T03:49:30;9.90;;;5.80;;
77705;SDS011;66874;45.274;5.880;2023-09-07T03:51:55;8.48;;;5.65;;
77705;SDS011;66874;45.274;5.880;2023-09-07T03:54:21;15.50;;;6.07;;
77705;SDS011;66874;45.274;5.880;2023-09-07T03:56:46;14.38;;;6.45;;
77705;SDS011;66874;45.274;5.880;2023-09-07T03:59:11;8.75;;;6.55;;
77705;SDS011;66874;45.274;5.880;2023-09-07T04:01:37;10.40;;;5.75;;
77705;SDS011;66874;45.274;5.880;2023-09-07T04:04:02;10.15;;;6.63;;
77705;SDS011;66874;45.274;5.880;2023-09-07T04:06:28;11.90;;;6.47;;
77705;SDS011;66874;45.274;5.880;2023-09-07T04:08:53;9.13;;;6.05;;
77705;SDS011;66874;45.274;5.880;2023-09-07T04:11:18;10.00;;;5.97;;
77705;SDS011;66874;45.274;5.880;2023-09-07T04:13:44;9.32;;;6.07;;
77705;SDS011;66874;45.274;5.880;2023-09-07T04:16:09;8.00;;;6.07;;
77705;SDS011;66874;45.274;5.880;2023-09-07T04:18:35;11.10;;;5.63;;
77705;SDS011;66874;45.274;5.880;2023-09-07T04:21:07;6.85;;;6.13;;
77705;SDS011;66874;45.274;5.880;2023-09-07T04:23:33;7.35;;;5.95;;
77705;SDS011;66874;45.274;5.880;2023-09-07T04:26:18;9.15;;;6.57;;
77705;SDS011;66874;45.274;5.880;2023-09-07T04:28:43;8.88;;;6.28;;
77705;SDS011;66874;45.274;5.880;2023-09-07T04:31:09;7.95;;;6.00;;
77705;SDS011;66874;45.274;5.880;2023-09-07T04:33:35;9.40;;;5.70;;
77705;SDS011;66874;45.274;5.880;2023-09-07T04:36:11;10.02;;;6.13;;
77705;SDS011;66874;45.274;5.880;2023-09-07T04:38:37;11.07;;;6.25;;
77705;SDS011;66874;45.274;5.880;2023-09-07T04:41:10;8.65;;;5.65;;
77705;SDS011;66874;45.274;5.880;2023-09-07T04:43:37;7.72;;;6.45;;
77705;SDS011;66874;45.274;5.880;2023-09-07T04:46:05;9.63;;;6.38;;
77705;SDS011;66874;45.274;5.880;2023-09-07T04:48:31;11.05;;;6.85;;
77705;SDS011;66874;45.274;5.880;2023-09-07T04:51:01;8.53;;;6.27;;
77705;SDS011;66874;45.274;5.880;2023-09-07T04:53:28;8.55;;;5.57;;
77705;SDS011;66874;45.274;5.880;2023-09-07T04:55:55;8.70;;;6.60;;
77705;SDS011;66874;45.274;5.880;2023-09-07T04:58:21;11.75;;;6.78;;
77705;SDS011;66874;45.274;5.880;2023-09-07T05:00:46;9.80;;;6.35;;
77705;SDS011;66874;45.274;5.880;2023-09-07T05:03:11;8.35;;;6.35;;
77705;SDS011;66874;45.274;5.880;2023-09-07T05:05:38;8.23;;;6.07;;
77705;SDS011;66874;45.274;5.880;2023-09-07T05:08:03;11.82;;;6.13;;
77705;SDS011;66874;45.274;5.880;2023-09-07T05:10:32;9.70;;;6.60;;
77705;SDS011;66874;45.274;5.880;2023-09-07T05:12:58;15.40;;;7.10;;
77705;SDS011;66874;45.274;5.880;2023-09-07T05:15:24;25.55;;;8.57;;
77705;SDS011;66874;45.274;5.880;2023-09-07T05:17:49;14.40;;;7.65;;
77705;SDS011;66874;45.274;5.880;2023-09-07T05:20:14;11.20;;;6.10;;
77705;SDS011;66874;45.274;5.880;2023-09-07T05:22:40;11.05;;;6.82;;
77705;SDS011;66874;45.274;5.880;2023-09-07T05:25:06;7.80;;;6.38;;
77705;SDS011;66874;45.274;5.880;2023-09-07T05:27:31;7.90;;;6.40;;
77705;SDS011;66874;45.274;5.880;2023-09-07T05:29:58;9.75;;;6.63;;
77705;SDS011;66874;45.274;5.880;2023-09-07T05:32:24;7.45;;;5.75;;
77705;SDS011;66874;45.274;5.880;2023-09-07T05:34:49;8.18;;;6.18;;
77705;SDS011;66874;45.274;5.880;2023-09-07T05:37:14;14.43;;;6.78;;
77705;SDS011;66874;45.274;5.880;2023-09-07T05:39:40;9.48;;;6.72;;
77705;SDS011;66874;45.274;5.880;2023-09-07T05:42:05;12.73;;;6.28;;
77705;SDS011;66874;45.274;5.880;2023-09-07T05:44:30;9.23;;;7.07;;
77705;SDS011;66874;45.274;5.880;2023-09-07T05:46:56;12.07;;;7.57;;
77705;SDS011;66874;45.274;5.880;2023-09-07T05:49:23;10.10;;;7.45;;
77705;SDS011;66874;45.274;5.880;2023-09-07T05:51:48;10.60;;;7.10;;
77705;SDS011;66874;45.274;5.880;2023-09-07T05:54:14;12.10;;;6.82;;
77705;SDS011;66874;45.274;5.880;2023-09-07T05:56:39;14.13;;;7.57;;
77705;SDS011;66874;45.274;5.880;2023-09-07T05:59:04;10.38;;;7.03;;
77705;SDS011;66874;45.274;5.880;2023-09-07T06:01:30;16.17;;;7.60;;
77705;SDS011;66874;45.274;5.880;2023-09-07T06:03:56;13.73;;;7.93;;
77705;SDS011;66874;45.274;5.880;2023-09-07T06:06:22;11.35;;;8.55;;
77705;SDS011;66874;45.274;5.880;2023-09-07T06:08:47;16.35;;;9.70;;
77705;SDS011;66874;45.274;5.880;2023-09-07T06:11:13;16.88;;;9.27;;
77705;SDS011;66874;45.274;5.880;2023-09-07T06:13:38;15.55;;;9.15;;
77705;SDS011;66874;45.274;5.880;2023-09-07T06:16:04;15.73;;;8.52;;
77705;SDS011;66874;45.274;5.880;2023-09-07T06:18:29;16.02;;;8.25;;
77705;SDS011;66874;45.274;5.880;2023-09-07T06:20:54;13.23;;;8.20;;
77705;SDS011;66874;45.274;5.880;2023-09-07T06:23:20;12.23;;;8.85;;
77705;SDS011;66874;45.274;5.880;2023-09-07T06:25:45;12.00;;;8.90;;
77705;SDS011;66874;45.274;5.880;2023-09-07T06:28:10;11.73;;;7.72;;
77705;SDS011;66874;45.274;5.880;2023-09-07T06:30:36;17.88;;;9.93;;
77705;SDS011;66874;45.274;5.880;2023-09-07T06:33:01;11.85;;;8.70;;
77705;SDS011;66874;45.274;5.880;2023-09-07T06:35:26;11.90;;;9.80;;
77705;SDS011;66874;45.274;5.880;2023-09-07T06:37:52;9.82;;;7.45;;
77705;SDS011;66874;45.274;5.880;2023-09-07T06:40:17;12.95;;;9.52;;
77705;SDS011;66874;45.274;5.880;2023-09-07T06:42:43;13.05;;;9.57;;
77705;SDS011;66874;45.274;5.880;2023-09-07T06:45:09;18.65;;;9.98;;
77705;SDS011;66874;45.274;5.880;2023-09-07T06:47:34;12.32;;;9.15;;
77705;SDS011;66874;45.274;5.880;2023-09-07T06:50:00;15.57;;;9.43;;
77705;SDS011;66874;45.274;5.880;2023-09-07T06:52:26;19.48;;;9.88;;
77705;SDS011;66874;45.274;5.880;2023-09-07T06:54:52;16.42;;;9.32;;
77705;SDS011;66874;45.274;5.880;2023-09-07T06:57:18;12.43;;;9.70;;
77705;SDS011;66874;45.274;5.880;2023-09-07T06:59:44;12.45;;;8.82;;
77705;SDS011;66874;45.274;5.880;2023-09-07T07:02:09;13.80;;;10.02;;
77705;SDS011;66874;45.274;5.880;2023-09-07T07:04:34;11.98;;;9.25;;
77705;SDS011;66874;45.274;5.880;2023-09-07T07:07:00;15.77;;;8.45;;
77705;SDS011;66874;45.274;5.880;2023-09-07T07:09:30;14.35;;;8.95;;
77705;SDS011;66874;45.274;5.880;2023-09-07T07:11:56;28.42;;;9.35;;
77705;SDS011;66874;45.274;5.880;2023-09-07T07:14:22;14.00;;;8.00;;
77705;SDS011;66874;45.274;5.880;2023-09-07T07:16:48;14.35;;;8.68;;
77705;SDS011;66874;45.274;5.880;2023-09-07T07:19:13;20.67;;;8.43;;
77705;SDS011;66874;45.274;5.880;2023-09-07T07:21:39;23.45;;;9.43;;
77705;SDS011;66874;45.274;5.880;2023-09-07T07:24:04;14.85;;;8.32;;
77705;SDS011;66874;45.274;5.880;2023-09-07T07:26:32;17.77;;;8.98;;
77705;SDS011;66874;45.274;5.880;2023-09-07T07:28:58;18.35;;;8.52;;
77705;SDS011;66874;45.274;5.880;2023-09-07T07:31:23;19.98;;;9.25;;
77705;SDS011;66874;45.274;5.880;2023-09-07T07:33:49;11.75;;;7.50;;
77705;SDS011;66874;45.274;5.880;2023-09-07T07:36:15;11.80;;;7.53;;
77705;SDS011;66874;45.274;5.880;2023-09-07T07:38:40;12.02;;;7.45;;
77705;SDS011;66874;45.274;5.880;2023-09-07T07:41:06;18.30;;;7.45;;
77705;SDS011;66874;45.274;5.880;2023-09-07T07:43:32;9.20;;;7.50;;
77705;SDS011;66874;45.274;5.880;2023-09-07T07:45:58;13.65;;;7.45;;
77705;SDS011;66874;45.274;5.880;2023-09-07T07:48:24;8.98;;;7.28;;
77705;SDS011;66874;45.274;5.880;2023-09-07T07:50:50;14.30;;;7.75;;
77705;SDS011;66874;45.274;5.880;2023-09-07T07:53:15;11.85;;;8.05;;
77705;SDS011;66874;45.274;5.880;2023-09-07T07:55:41;11.20;;;7.63;;
77705;SDS011;66874;45.274;5.880;2023-09-07T07:58:07;11.88;;;7.60;;
77705;SDS011;66874;45.274;5.880;2023-09-07T08:00:33;10.67;;;7.20;;
77705;SDS011;66874;45.274;5.880;2023-09-07T08:03:00;11.10;;;8.27;;
77705;SDS011;66874;45.274;5.880;2023-09-07T08:05:27;11.88;;;7.57;;
77705;SDS011;66874;45.274;5.880;2023-09-07T08:07:53;10.43;;;7.60;;
77705;SDS011;66874;45.274;5.880;2023-09-07T08:10:18;11.23;;;7.25;;
77705;SDS011;66874;45.274;5.880;2023-09-07T08:12:44;16.38;;;7.05;;
77705;SDS011;66874;45.274;5.880;2023-09-07T08:15:09;11.98;;;8.02;;
77705;SDS011;66874;45.274;5.880;2023-09-07T08:17:35;11.77;;;7.63;;
77705;SDS011;66874;45.274;5.880;2023-09-07T08:20:01;15.35;;;8.63;;
77705;SDS011;66874;45.274;5.880;2023-09-07T08:22:28;22.13;;;8.15;;
77705;SDS011;66874;45.274;5.880;2023-09-07T08:24:53;13.20;;;7.90;;
77705;SDS011;66874;45.274;5.880;2023-09-07T08:27:20;13.27;;;7.30;;
77705;SDS011;66874;45.274;5.880;2023-09-07T08:29:46;12.57;;;7.45;;
77705;SDS011;66874;45.274;5.880;2023-09-07T08:32:13;13.95;;;7.13;;
77705;SDS011;66874;45.274;5.880;2023-09-07T08:34:39;13.98;;;8.20;;
77705;SDS011;66874;45.274;5.880;2023-09-07T08:37:06;13.90;;;8.38;;
77705;SDS011;66874;45.274;5.880;2023-09-07T08:39:33;9.65;;;7.75;;
77705;SDS011;66874;45.274;5.880;2023-09-07T08:41:59;11.73;;;7.72;;
77705;SDS011;66874;45.274;5.880;2023-09-07T08:44:26;13.10;;;7.13;;
77705;SDS011;66874;45.274;5.880;2023-09-07T08:46:52;18.75;;;8.32;;
77705;SDS011;66874;45.274;5.880;2023-09-07T08:49:18;17.38;;;8.38;;
77705;SDS011;66874;45.274;5.880;2023-09-07T08:51:48;11.25;;;8.30;;
77705;SDS011;66874;45.274;5.880;2023-09-07T08:54:14;19.50;;;7.33;;
77705;SDS011;66874;45.274;5.880;2023-09-07T08:56:40;10.38;;;7.60;;
77705;SDS011;66874;45.274;5.880;2023-09-07T08:59:05;17.58;;;8.23;;
77705;SDS011;66874;45.274;5.880;2023-09-07T09:01:31;17.10;;;7.50;;
77705;SDS011;66874;45.274;5.880;2023-09-07T09:03:57;14.55;;;7.55;;
77705;SDS011;66874;45.274;5.880;2023-09-07T09:06:23;14.05;;;7.05;;
77705;SDS011;66874;45.274;5.880;2023-09-07T09:08:53;16.23;;;8.20;;
77705;SDS011;66874;45.274;5.880;2023-09-07T09:11:20;13.43;;;6.90;;
77705;SDS011;66874;45.274;5.880;2023-09-07T09:13:47;21.35;;;7.38;;
77705;SDS011;66874;45.274;5.880;2023-09-07T09:16:14;16.88;;;7.40;;
77705;SDS011;66874;45.274;5.880;2023-09-07T09:21:23;11.20;;;7.20;;
77705;SDS011;66874;45.274;5.880;2023-09-07T09:23:53;11.80;;;7.32;;
77705;SDS011;66874;45.274;5.880;2023-09-07T09:26:23;8.18;;;6.40;;
77705;SDS011;66874;45.274;5.880;2023-09-07T09:28:48;9.10;;;6.70;;
77705;SDS011;66874;45.274;5.880;2023-09-07T09:31:17;12.98;;;6.97;;
77705;SDS011;66874;45.274;5.880;2023-09-07T09:33:47;16.90;;;7.13;;
77705;SDS011;66874;45.274;5.880;2023-09-07T09:36:13;16.45;;;7.68;;
77705;SDS011;66874;45.274;5.880;2023-09-07T09:38:39;12.77;;;7.18;;
77705;SDS011;66874;45.274;5.880;2023-09-07T09:41:05;16.27;;;6.60;;
77705;SDS011;66874;45.274;5.880;2023-09-07T09:43:35;9.98;;;6.38;;
77705;SDS011;66874;45.274;5.880;2023-09-07T09:46:01;14.45;;;7.85;;
77705;SDS011;66874;45.274;5.880;2023-09-07T09:48:30;13.20;;;7.60;;
77705;SDS011;66874;45.274;5.880;2023-09-07T09:51:07;11.40;;;6.80;;
77705;SDS011;66874;45.274;5.880;2023-09-07T09:53:49;15.00;;;7.32;;
77705;SDS011;66874;45.274;5.880;2023-09-07T09:56:16;11.07;;;6.70;;
77705;SDS011;66874;45.274;5.880;2023-09-07T09:58:42;16.13;;;7.05;;
77705;SDS011;66874;45.274;5.880;2023-09-07T10:01:07;13.68;;;7.47;;
77705;SDS011;66874;45.274;5.880;2023-09-07T10:03:40;16.63;;;7.05;;
77705;SDS011;66874;45.274;5.880;2023-09-07T10:06:22;18.88;;;7.45;;
77705;SDS011;66874;45.274;5.880;2023-09-07T10:08:53;10.68;;;5.75;;
77705;SDS011;66874;45.274;5.880;2023-09-07T10:11:34;8.02;;;6.53;;
77705;SDS011;66874;45.274;5.880;2023-09-07T10:14:03;12.30;;;6.70;;
77705;SDS011;66874;45.274;5.880;2023-09-07T10:16:40;10.25;;;6.47;;
77705;SDS011;66874;45.274;5.880;2023-09-07T10:19:16;10.95;;;7.03;;
77705;SDS011;66874;45.274;5.880;2023-09-07T10:21:42;9.02;;;6.53;;
77705;SDS011;66874;45.274;5.880;2023-09-07T10:24:08;14.95;;;6.32;;
77705;SDS011;66874;45.274;5.880;2023-09-07T10:26:34;13.23;;;6.47;;
77705;SDS011;66874;45.274;5.880;2023-09-07T10:29:00;12.52;;;5.93;;
77705;SDS011;66874;45.274;5.880;2023-09-07T10:31:28;12.32;;;6.88;;
77705;SDS011;66874;45.274;5.880;2023-09-07T10:33:55;9.27;;;6.60;;
77705;SDS011;66874;45.274;5.880;2023-09-07T10:36:25;15.20;;;6.43;;
77705;SDS011;66874;45.274;5.880;2023-09-07T10:38:52;13.73;;;6.15;;
77705;SDS011;66874;45.274;5.880;2023-09-07T10:41:19;10.77;;;7.07;;
77705;SDS011;66874;45.274;5.880;2023-09-07T10:43:49;7.97;;;6.30;;
77705;SDS011;66874;45.274;5.880;2023-09-07T10:46:22;11.18;;;7.15;;
77705;SDS011;66874;45.274;5.880;2023-09-07T10:48:51;9.52;;;6.43;;
77705;SDS011;66874;45.274;5.880;2023-09-07T10:51:20;12.73;;;6.68;;
77705;SDS011;66874;45.274;5.880;2023-09-07T10:53:46;10.65;;;6.40;;
77705;SDS011;66874;45.274;5.880;2023-09-07T10:56:12;9.55;;;6.40;;
77705;SDS011;66874;45.274;5.880;2023-09-07T10:58:37;13.23;;;6.47;;
77705;SDS011;66874;45.274;5.880;2023-09-07T11:01:10;11.18;;;6.43;;
77705;SDS011;66874;45.274;5.880;2023-09-07T11:03:36;14.40;;;6.50;;
77705;SDS011;66874;45.274;5.880;2023-09-07T11:06:10;11.57;;;6.55;;
77705;SDS011;66874;45.274;5.880;2023-09-07T11:08:39;10.65;;;7.05;;
77705;SDS011;66874;45.274;5.880;2023-09-07T11:11:04;11.27;;;7.17;;
77705;SDS011;66874;45.274;5.880;2023-09-07T11:13:30;11.50;;;7.23;;
77705;SDS011;66874;45.274;5.880;2023-09-07T11:15:56;10.90;;;7.13;;
77705;SDS011;66874;45.274;5.880;2023-09-07T11:18:23;39.45;;;10.77;;
77705;SDS011;66874;45.274;5.880;2023-09-07T11:20:50;10.95;;;6.72;;
77705;SDS011;66874;45.274;5.880;2023-09-07T11:23:17;15.57;;;9.00;;
77705;SDS011;66874;45.274;5.880;2023-09-07T11:25:43;50.70;;;10.77;;
77705;SDS011;66874;45.274;5.880;2023-09-07T11:28:09;120.90;;;16.73;;
77705;SDS011;66874;45.274;5.880;2023-09-07T11:30:36;34.38;;;9.85;;
77705;SDS011;66874;45.274;5.880;2023-09-07T11:33:02;9.80;;;7.63;;
77705;SDS011;66874;45.274;5.880;2023-09-07T11:35:30;35.05;;;7.35;;
77705;SDS011;66874;45.274;5.880;2023-09-07T11:37:55;16.90;;;7.53;;
77705;SDS011;66874;45.274;5.880;2023-09-07T11:40:21;15.17;;;6.80;;
77705;SDS011;66874;45.274;5.880;2023-09-07T11:42:46;13.43;;;7.87;;
77705;SDS011;66874;45.274;5.880;2023-09-07T11:45:11;12.30;;;7.40;;
77705;SDS011;66874;45.274;5.880;2023-09-07T11:50:04;11.37;;;7.40;;
77705;SDS011;66874;45.274;5.880;2023-09-07T11:52:31;9.30;;;7.10;;
77705;SDS011;66874;45.274;5.880;2023-09-07T11:54:57;8.43;;;7.07;;
77705;SDS011;66874;45.274;5.880;2023-09-07T11:57:22;11.63;;;7.73;;
77705;SDS011;66874;45.274;5.880;2023-09-07T11:59:48;7.73;;;7.03;;
77705;SDS011;66874;45.274;5.880;2023-09-07T12:02:13;7.70;;;6.70;;
77705;SDS011;66874;45.274;5.880;2023-09-07T12:04:40;9.02;;;5.93;;
77705;SDS011;66874;45.274;5.880;2023-09-07T12:07:05;9.40;;;6.33;;
77705;SDS011;66874;45.274;5.880;2023-09-07T12:09:31;15.03;;;8.60;;
77705;SDS011;66874;45.274;5.880;2023-09-07T12:11:57;10.90;;;6.47;;
77705;SDS011;66874;45.274;5.880;2023-09-07T12:14:23;9.10;;;6.72;;
77705;SDS011;66874;45.274;5.880;2023-09-07T12:16:48;16.03;;;7.47;;
77705;SDS011;66874;45.274;5.880;2023-09-07T12:19:14;9.90;;;7.13;;
77705;SDS011;66874;45.274;5.880;2023-09-07T12:21:39;8.10;;;7.27;;
77705;SDS011;66874;45.274;5.880;2023-09-07T12:24:04;9.60;;;7.20;;
77705;SDS011;66874;45.274;5.880;2023-09-07T12:26:30;8.57;;;6.65;;
77705;SDS011;66874;45.274;5.880;2023-09-07T12:28:56;9.73;;;6.77;;
77705;SDS011;66874;45.274;5.880;2023-09-07T12:31:21;10.57;;;6.67;;
77705;SDS011;66874;45.274;5.880;2023-09-07T12:33:47;9.83;;;7.20;;
77705;SDS011;66874;45.274;5.880;2023-09-07T12:36:12;9.37;;;6.47;;
77705;SDS011;66874;45.274;5.880;2023-09-07T12:38:37;8.80;;;6.33;;
77705;SDS011;66874;45.274;5.880;2023-09-07T12:41:03;8.33;;;6.70;;
77705;SDS011;66874;45.274;5.880;2023-09-07T12:43:28;7.27;;;6.67;;
77705;SDS011;66874;45.274;5.880;2023-09-07T12:45:54;9.70;;;6.37;;
77705;SDS011;66874;45.274;5.880;2023-09-07T12:48:21;8.02;;;7.20;;
77705;SDS011;66874;45.274;5.880;2023-09-07T12:50:46;12.07;;;6.30;;
77705;SDS011;66874;45.274;5.880;2023-09-07T12:53:12;8.02;;;6.05;;
77705;SDS011;66874;45.274;5.880;2023-09-07T12:55:37;7.13;;;6.47;;
77705;SDS011;66874;45.274;5.880;2023-09-07T12:58:03;7.97;;;6.38;;
77705;SDS011;66874;45.274;5.880;2023-09-07T13:00:29;11.77;;;6.63;;
77705;SDS011;66874;45.274;5.880;2023-09-07T13:02:54;13.03;;;6.63;;
77705;SDS011;66874;45.274;5.880;2023-09-07T13:05:21;9.77;;;6.70;;
77705;SDS011;66874;45.274;5.880;2023-09-07T13:07:46;8.05;;;6.75;;
77705;SDS011;66874;45.274;5.880;2023-09-07T13:10:12;10.13;;;5.80;;
77705;SDS011;66874;45.274;5.880;2023-09-07T13:12:37;7.17;;;6.20;;
77705;SDS011;66874;45.274;5.880;2023-09-07T13:15:03;7.20;;;5.60;;
77705;SDS011;66874;45.274;5.880;2023-09-07T13:17:30;7.38;;;6.13;;
77705;SDS011;66874;45.274;5.880;2023-09-07T13:19:55;9.27;;;6.38;;
77705;SDS011;66874;45.274;5.880;2023-09-07T13:22:20;6.87;;;6.27;;
77705;SDS011;66874;45.274;5.880;2023-09-07T13:24:46;10.73;;;6.47;;
77705;SDS011;66874;45.274;5.880;2023-09-07T13:27:11;7.33;;;5.43;;
77705;SDS011;66874;45.274;5.880;2023-09-07T13:29:37;6.40;;;5.80;;
77705;SDS011;66874;45.274;5.880;2023-09-07T13:32:02;7.10;;;5.87;;
77705;SDS011;66874;45.274;5.880;2023-09-07T13:34:28;8.45;;;6.50;;
77705;SDS011;66874;45.274;5.880;2023-09-07T13:36:54;6.73;;;6.03;;
77705;SDS011;66874;45.274;5.880;2023-09-07T13:39:20;6.78;;;6.07;;
77705;SDS011;66874;45.274;5.880;2023-09-07T13:41:46;5.90;;;5.43;;
77705;SDS011;66874;45.274;5.880;2023-09-07T13:44:13;9.27;;;6.40;;
77705;SDS011;66874;45.274;5.880;2023-09-07T13:46:39;6.15;;;5.63;;
77705;SDS011;66874;45.274;5.880;2023-09-07T13:49:04;6.10;;;5.60;;
77705;SDS011;66874;45.274;5.880;2023-09-07T13:51:30;8.27;;;6.18;;
77705;SDS011;66874;45.274;5.880;2023-09-07T13:54:00;6.68;;;5.88;;
77705;SDS011;66874;45.274;5.880;2023-09-07T13:56:26;6.55;;;5.95;;
77705;SDS011;66874;45.274;5.880;2023-09-07T13:58:51;8.75;;;5.95;;
77705;SDS011;66874;45.274;5.880;2023-09-07T14:01:17;11.68;;;7.10;;
77705;SDS011;66874;45.274;5.880;2023-09-07T14:03:42;7.83;;;5.77;;
77705;SDS011;66874;45.274;5.880;2023-09-07T14:06:07;9.60;;;6.07;;
77705;SDS011;66874;45.274;5.880;2023-09-07T14:08:33;8.32;;;5.97;;
77705;SDS011;66874;45.274;5.880;2023-09-07T14:10:59;6.43;;;5.82;;
77705;SDS011;66874;45.274;5.880;2023-09-07T14:13:25;7.07;;;6.30;;
77705;SDS011;66874;45.274;5.880;2023-09-07T14:15:51;10.10;;;5.85;;
77705;SDS011;66874;45.274;5.880;2023-09-07T14:20:41;10.07;;;5.97;;
77705;SDS011;66874;45.274;5.880;2023-09-07T14:23:07;6.63;;;6.00;;
77705;SDS011;66874;45.274;5.880;2023-09-07T14:25:32;8.90;;;6.28;;
77705;SDS011;66874;45.274;5.880;2023-09-07T14:30:23;7.32;;;6.05;;
77705;SDS011;66874;45.274;5.880;2023-09-07T14:35:14;7.87;;;6.33;;
77705;SDS011;66874;45.274;5.880;2023-09-07T14:37:41;6.93;;;6.10;;
77705;SDS011;66874;45.274;5.880;2023-09-07T14:44:58;9.43;;;5.72;;
77705;SDS011;66874;45.274;5.880;2023-09-07T14:47:25;10.65;;;6.72;;
77705;SDS011;66874;45.274;5.880;2023-09-07T14:49:51;6.30;;;5.65;;
77705;SDS011;66874;45.274;5.880;2023-09-07T14:52:17;8.68;;;6.20;;
77705;SDS011;66874;45.274;5.880;2023-09-07T14:54:43;7.13;;;6.00;;